Spray, North Carolina
Current Conditions -  °F | °C
As of 5:35 AM on Monday 26 Jan 2015 (Local Time) from KSIF Reporting Station
Scattered Clouds Scattered Clouds  
Wind Chill: 34°   Ceiling: Unl
Heat Index: 34°   Visibility: 10mi
Dew Point: 34°   Wind: 0mph
Humidity: 99%   Direction: NA
Pressure: 29.66"   Gusts: NA
Location:  36.5114°N, 79.7844°W
Report Text: KSIF 261035Z AUTO 00000KT 10SM SCT110 01/01 A2966 RMK AO2 T00110009
Loading
Personal Weather Stations






























Interactive Weather Map New forecast layout! Learn more

10-Day Weather Forecast

Advertisements
Track Severe Weather on mobile